Time;durP1;ratioP1;P1;durP2;ratioP2;P2;SDS_P1;SDS_P2;PMS_P1;PMS_P2;Temp;Humidity;BMP_temperature;BMP_pressure;BME280_temperature;BME280_humidity;BME280_pressure;Samples;Min_cycle;Max_cycle;Signal;HPM_P1;HPM_P2
2022/12/31 00:00:29;;;;;;;67.57;6.43;;;;;;;12.59;100.00;97660.38;5025961;28;20037;-54
2022/12/31 00:02:54;;;;;;;53.58;5.75;;;;;;;12.23;100.00;97654.88;5028033;28;20117;-55
2022/12/31 00:05:21;;;;;;;50.10;5.45;;;;;;;12.37;100.00;97650.28;5031475;28;20021;-55
2022/12/31 00:07:47;;;;;;;46.00;4.70;;;;;;;12.26;100.00;97651.34;5029828;28;20446;-57
2022/12/31 00:10:13;;;;;;;48.95;5.50;;;;;;;12.52;100.00;97650.94;5032346;28;20116;-56
2022/12/31 00:12:38;;;;;;;87.40;7.80;;;;;;;12.63;100.00;97655.97;5025066;28;20057;-57
2022/12/31 00:15:04;;;;;;;57.17;5.72;;;;;;;12.60;100.00;97651.69;5024707;28;20035;-56
2022/12/31 00:17:29;;;;;;;57.17;5.90;;;;;;;12.60;100.00;97643.84;5028211;28;20519;-55
2022/12/31 00:19:55;;;;;;;57.70;6.05;;;;;;;12.25;100.00;97642.66;5029142;28;20021;-55
2022/12/31 00:22:20;;;;;;;57.88;5.75;;;;;;;12.54;100.00;97645.69;5027574;28;20041;-56
2022/12/31 00:24:46;;;;;;;48.75;5.28;;;;;;;12.44;100.00;97645.00;5028375;28;20043;-57
2022/12/31 00:27:11;;;;;;;48.88;5.45;;;;;;;12.28;100.00;97642.63;5029511;28;20618;-55
2022/12/31 00:29:37;;;;;;;63.47;5.97;;;;;;;12.30;100.00;97646.06;5027976;28;20024;-58
2022/12/31 00:32:02;;;;;;;68.10;6.43;;;;;;;12.30;100.00;97643.47;5029295;28;20034;-56
2022/12/31 00:34:27;;;;;;;42.25;4.70;;;;;;;12.16;100.00;97650.63;5027747;28;20025;-58
2022/12/31 00:36:53;;;;;;;55.47;5.65;;;;;;;12.16;100.00;97655.84;5030655;28;20110;-57
2022/12/31 00:39:18;;;;;;;58.88;5.85;;;;;;;12.11;100.00;97656.75;5031589;28;20469;-56
2022/12/31 00:41:43;;;;;;;56.90;5.53;;;;;;;11.87;100.00;97659.72;5028896;28;20126;-56
2022/12/31 00:44:12;;;;;;;64.63;5.85;;;;;;;11.93;100.00;97652.69;5029048;28;20025;-56
2022/12/31 00:46:38;;;;;;;42.17;4.60;;;;;;;12.09;100.00;97665.50;5026266;28;20029;-55
2022/12/31 00:49:04;;;;;;;70.22;6.25;;;;;;;12.16;100.00;97655.84;5026884;28;20442;-58
2022/12/31 00:51:29;;;;;;;46.75;5.03;;;;;;;12.10;100.00;97660.25;5023940;28;20041;-56
2022/12/31 00:53:56;;;;;;;47.80;5.10;;;;;;;12.29;100.00;97661.75;5027918;28;20557;-58
2022/12/31 00:56:24;;;;;;;46.85;4.63;;;;;;;12.36;100.00;97671.19;5030063;28;20036;-55
2022/12/31 00:58:50;;;;;;;54.20;5.15;;;;;;;12.28;100.00;97673.91;5026108;28;20479;-57
2022/12/31 01:01:28;;;;;;;57.83;5.20;;;;;;;12.47;100.00;97671.88;5025332;28;20061;-55
2022/12/31 01:04:07;;;;;;;69.95;6.25;;;;;;;12.35;100.00;97678.16;5029006;28;20356;-55
2022/12/31 01:06:32;;;;;;;51.58;4.85;;;;;;;12.35;100.00;97688.59;5029391;28;20045;-56
2022/12/31 01:08:57;;;;;;;45.25;4.55;;;;;;;12.49;100.00;97695.31;5028520;28;20045;-56
2022/12/31 01:11:28;;;;;;;49.25;4.82;;;;;;;12.60;100.00;97698.63;5028204;28;20032;-58
2022/12/31 01:13:59;;;;;;;45.25;4.28;;;;;;;12.66;100.00;97702.03;5029501;28;20783;-55
2022/12/31 01:16:39;;;;;;;71.18;6.40;;;;;;;12.57;100.00;97703.03;5025386;28;20045;-56
2022/12/31 01:19:09;;;;;;;64.55;5.95;;;;;;;12.56;100.00;97707.41;5029054;28;20067;-56
2022/12/31 01:21:36;;;;;;;48.78;5.00;;;;;;;12.45;100.00;97704.09;5028146;28;20269;-54
2022/12/31 01:24:02;;;;;;;48.38;4.68;;;;;;;12.78;100.00;97711.38;5029483;28;20965;-55
2022/12/31 01:26:28;;;;;;;60.00;5.50;;;;;;;12.88;100.00;97713.81;5030288;28;20037;-55
2022/12/31 01:28:54;;;;;;;34.92;3.70;;;;;;;12.89;100.00;97719.91;5031435;28;20018;-54
2022/12/31 01:31:20;;;;;;;76.35;6.30;;;;;;;13.08;100.00;97711.75;5024785;28;20030;-54
2022/12/31 01:33:46;;;;;;;44.65;4.22;;;;;;;13.07;100.00;97713.47;5034009;28;20032;-55
2022/12/31 01:36:15;;;;;;;51.35;4.57;;;;;;;13.09;100.00;97711.72;5030102;28;20045;-55
2022/12/31 01:38:40;;;;;;;47.17;4.72;;;;;;;13.07;100.00;97712.63;5029681;28;20021;-54
2022/12/31 01:41:10;;;;;;;58.53;5.35;;;;;;;13.27;100.00;97702.69;5030394;28;20102;-56
2022/12/31 01:44:10;;;;;;;67.68;5.65;;;;;;;13.32;100.00;97710.44;5030593;28;20403;-55
2022/12/31 01:46:50;;;;;;;51.33;4.43;;;;;;;13.36;100.00;97714.69;5028995;28;20049;-57
2022/12/31 01:49:33;;;;;;;41.17;3.95;;;;;;;13.40;100.00;97725.97;5034117;28;20036;-55
2022/12/31 01:52:10;;;;;;;50.67;4.43;;;;;;;13.64;100.00;97729.00;5032475;28;20099;-57
2022/12/31 01:54:41;;;;;;;39.95;3.88;;;;;;;13.69;100.00;97728.94;5033389;28;20083;-55
2022/12/31 01:57:08;;;;;;;42.08;4.07;;;;;;;13.76;100.00;97740.97;5033977;28;20087;-55
2022/12/31 01:59:33;;;;;;;52.13;4.47;;;;;;;13.92;100.00;97733.69;5033518;28;20020;-55
2022/12/31 02:02:00;;;;;;;37.00;3.58;;;;;;;13.90;100.00;97736.34;5034290;28;20052;-55
2022/12/31 02:04:26;;;;;;;40.45;3.92;;;;;;;13.91;100.00;97735.44;5034509;28;20044;-55
2022/12/31 02:06:59;;;;;;;59.20;4.88;;;;;;;14.02;100.00;97729.09;5035360;28;20037;-55
2022/12/31 02:09:24;;;;;;;46.40;4.13;;;;;;;14.17;100.00;97739.25;5033632;28;20132;-58
2022/12/31 02:11:50;;;;;;;54.92;4.93;;;;;;;14.16;100.00;97744.50;5032284;28;20037;-55
2022/12/31 02:14:17;;;;;;;42.47;3.88;;;;;;;14.20;100.00;97735.69;5035171;28;20081;-55
2022/12/31 02:17:07;;;;;;;44.22;4.18;;;;;;;14.17;100.00;97738.38;5036523;28;20033;-56
2022/12/31 02:19:42;;;;;;;49.00;4.40;;;;;;;14.11;100.00;97730.66;5032658;28;20584;-55
2022/12/31 02:22:45;;;;;;;52.00;4.63;;;;;;;14.07;100.00;97742.97;5029556;28;20057;-55
2022/12/31 02:25:39;;;;;;;44.28;4.20;;;;;;;14.18;100.00;97734.88;5030546;28;20048;-55
2022/12/31 02:28:17;;;;;;;52.53;4.75;;;;;;;14.22;100.00;97735.66;5032392;28;20083;-56
2022/12/31 02:30:49;;;;;;;47.38;4.07;;;;;;;14.08;100.00;97738.56;5031677;28;20075;-58
2022/12/31 02:33:31;;;;;;;51.40;4.50;;;;;;;14.16;100.00;97734.91;5035070;28;20487;-57
2022/12/31 02:36:04;;;;;;;34.83;3.35;;;;;;;14.33;100.00;97744.16;5034131;28;20368;-56
2022/12/31 02:38:34;;;;;;;38.38;3.42;;;;;;;14.17;100.00;97739.25;5035536;28;20471;-55
2022/12/31 02:41:00;;;;;;;33.75;3.15;;;;;;;14.00;100.00;97738.75;5031086;28;20057;-56
2022/12/31 02:43:26;;;;;;;40.40;3.50;;;;;;;14.40;100.00;97745.72;5035929;28;20581;-55
2022/12/31 02:46:24;;;;;;;36.88;3.50;;;;;;;14.40;100.00;97740.47;5033654;28;20049;-55
2022/12/31 02:49:22;;;;;;;31.75;3.10;;;;;;;14.49;100.00;97733.31;5034891;28;20035;-57
2022/12/31 02:51:58;;;;;;;31.17;3.38;;;;;;;14.44;100.00;97744.75;5032269;28;20686;-56
2022/12/31 02:55:09;;;;;;;44.38;4.38;;;;;;;14.41;100.00;97746.56;5032377;28;20033;-58
2022/12/31 02:57:41;;;;;;;31.45;3.60;;;;;;;14.29;100.00;97750.34;5011693;28;20587;-56
2022/12/31 03:02:55;;;;;;;37.50;3.65;;;;;;;14.54;100.00;97753.25;5013689;28;20813;-56
2022/12/31 03:05:23;;;;;;;35.17;3.55;;;;;;;14.46;100.00;97755.19;5014918;28;20033;-56
2022/12/31 03:07:49;;;;;;;46.85;4.10;;;;;;;14.55;100.00;97754.97;5016547;28;20029;-55
2022/12/31 03:10:15;;;;;;;38.15;3.47;;;;;;;14.58;100.00;97754.91;5016211;28;20027;-55
2022/12/31 03:12:46;;;;;;;48.88;4.57;;;;;;;14.48;100.00;97753.41;5032741;28;20056;-55
2022/12/31 03:15:24;;;;;;;32.70;3.35;;;;;;;14.76;100.00;97757.09;5031707;28;20029;-55
2022/12/31 03:17:52;;;;;;;34.92;3.35;;;;;;;14.67;100.00;97763.44;5033299;28;20032;-57
2022/12/31 03:23:07;;;;;;;31.75;3.17;;;;;;;14.60;100.00;97773.19;5031695;28;20064;-55
2022/12/31 03:25:33;;;;;;;35.85;3.22;;;;;;;14.74;100.00;97772.00;5031590;28;20040;-57
2022/12/31 03:28:03;;;;;;;32.58;3.22;;;;;;;14.76;100.00;97764.94;5033597;28;20028;-55
2022/12/31 03:30:30;;;;;;;33.92;3.35;;;;;;;14.56;100.00;97755.84;5030094;28;20051;-55
2022/12/31 03:32:57;;;;;;;44.65;4.13;;;;;;;14.44;100.00;97759.59;5033495;28;20278;-55
2022/12/31 03:35:23;;;;;;;28.65;3.05;;;;;;;14.52;100.00;97759.41;5030788;28;20463;-55
2022/12/31 03:37:50;;;;;;;50.53;4.60;;;;;;;14.35;100.00;97757.16;5035039;28;20059;-55
2022/12/31 03:40:18;;;;;;;33.42;3.28;;;;;;;14.26;100.00;97764.31;5033476;28;20033;-56
2022/12/31 03:42:43;;;;;;;44.88;3.88;;;;;;;14.17;100.00;97770.63;5034334;28;20032;-57
2022/12/31 03:45:10;;;;;;;36.88;3.60;;;;;;;14.00;100.00;97764.91;5030659;28;20024;-55
2022/12/31 03:47:35;;;;;;;35.53;3.35;;;;;;;14.07;100.00;97774.34;5032900;28;20081;-57
2022/12/31 03:50:01;;;;;;;47.78;4.28;;;;;;;14.00;100.00;97772.75;5032231;28;20017;-55
2022/12/31 03:52:27;;;;;;;36.83;3.45;;;;;;;14.04;100.00;97783.09;5032869;28;20041;-56
2022/12/31 03:54:52;;;;;;;39.08;3.80;;;;;;;14.26;100.00;97764.31;5032178;28;20078;-55
2022/12/31 03:57:17;;;;;;;38.53;3.42;;;;;;;14.24;100.00;97750.44;5031959;28;20037;-56
2022/12/31 03:59:43;;;;;;;71.82;5.75;;;;;;;14.31;100.00;97761.63;5032403;28;20025;-57
2022/12/31 04:02:08;;;;;;;51.05;4.47;;;;;;;14.37;100.00;97753.66;5031569;28;20079;-56
2022/12/31 04:04:34;;;;;;;36.75;3.60;;;;;;;14.43;100.00;97758.72;5033402;28;20634;-57
2022/12/31 04:06:59;;;;;;;27.88;2.88;;;;;;;14.47;100.00;97763.91;5032089;28;20038;-56
2022/12/31 04:09:24;;;;;;;38.50;3.60;;;;;;;14.49;100.00;97754.25;5032628;28;20031;-55
2022/12/31 04:11:50;;;;;;;33.97;3.28;;;;;;;14.56;100.00;97753.22;5029061;28;20033;-55
2022/12/31 04:14:18;;;;;;;49.55;4.55;;;;;;;14.45;100.00;97759.53;5032273;28;20037;-55
2022/12/31 04:16:44;;;;;;;41.38;3.67;;;;;;;14.34;100.00;97765.91;5032003;28;20049;-56
2022/12/31 04:19:10;;;;;;;41.92;3.92;;;;;;;14.14;100.00;97768.06;5030985;28;20079;-56
2022/12/31 04:21:36;;;;;;;36.00;3.53;;;;;;;13.85;100.00;97772.13;5011340;28;20045;-55
2022/12/31 04:24:01;;;;;;;33.35;3.35;;;;;;;13.73;100.00;97785.47;5033832;28;20095;-55
2022/12/31 04:26:28;;;;;;;50.67;4.40;;;;;;;13.63;100.00;97780.41;5030515;28;20058;-55
2022/12/31 04:28:53;;;;;;;31.60;3.30;;;;;;;13.96;100.00;97792.00;5030884;28;20021;-54
2022/12/31 04:31:18;;;;;;;92.88;7.68;;;;;;;13.78;100.00;97791.47;5027921;28;20044;-55
2022/12/31 04:33:44;;;;;;;39.95;3.78;;;;;;;13.82;100.00;97795.75;5031535;28;20534;-55
2022/12/31 04:36:09;;;;;;;29.48;3.22;;;;;;;13.76;100.00;97799.34;5033801;28;20047;-55
2022/12/31 04:38:34;;;;;;;43.63;4.10;;;;;;;13.90;100.00;97803.44;5033659;28;20025;-56
2022/12/31 04:43:52;;;;;;;31.33;3.33;;;;;;;13.85;100.00;97802.66;5034280;28;20062;-55
2022/12/31 04:46:31;;;;;;;39.80;3.75;;;;;;;13.84;100.00;97795.72;5032476;28;20515;-57
2022/12/31 04:48:57;;;;;;;35.90;3.42;;;;;;;13.79;100.00;97814.09;5031175;28;20032;-58
2022/12/31 04:51:24;;;;;;;41.55;3.95;;;;;;;13.90;100.00;97819.13;5030065;28;20033;-56
2022/12/31 04:53:49;;;;;;;50.22;4.53;;;;;;;13.74;100.00;97819.41;5033283;28;20856;-56
2022/12/31 04:56:15;;;;;;;35.33;3.70;;;;;;;13.89;100.00;97818.25;5031978;28;20038;-55
2022/12/31 04:58:40;;;;;;;42.15;3.90;;;;;;;13.86;100.00;97823.56;5032546;28;20624;-55
2022/12/31 05:01:06;;;;;;;45.92;4.32;;;;;;;14.10;100.00;97821.34;5029906;28;20045;-55
2022/12/31 05:03:32;;;;;;;32.38;3.13;;;;;;;13.82;100.00;97816.66;5037482;28;20544;-55
2022/12/31 05:06:03;;;;;;;42.20;4.25;;;;;;;13.70;100.00;97827.34;5035513;28;20065;-55
2022/12/31 05:08:29;;;;;;;32.42;3.50;;;;;;;13.95;100.00;97817.25;5037482;28;20814;-57
2022/12/31 05:10:55;;;;;;;45.22;4.47;;;;;;;14.21;100.00;97812.41;5034340;28;20129;-55
2022/12/31 05:13:20;;;;;;;35.00;3.42;;;;;;;14.03;100.00;97815.38;5034413;28;20103;-55
2022/12/31 05:15:46;;;;;;;39.17;3.63;;;;;;;14.08;100.00;97822.25;5035186;28;20044;-55
2022/12/31 05:18:11;;;;;;;33.55;3.47;;;;;;;13.93;100.00;97819.91;5032825;28;20032;-55
2022/12/31 05:20:37;;;;;;;36.35;3.50;;;;;;;13.77;100.00;97818.50;5034373;28;20149;-55
2022/12/31 05:23:03;;;;;;;43.50;4.55;;;;;;;13.61;100.00;97818.78;5034101;28;20029;-55
2022/12/31 05:25:28;;;;;;;38.70;3.67;;;;;;;13.68;100.00;97832.59;5034288;28;20048;-55
2022/12/31 05:27:53;;;;;;;31.02;3.35;;;;;;;13.61;100.00;97830.97;5034404;28;20037;-55
2022/12/31 05:30:22;;;;;;;41.42;3.95;;;;;;;13.69;100.00;97820.41;5036558;28;20108;-58
2022/12/31 05:32:47;;;;;;;37.83;3.83;;;;;;;13.47;100.00;97826.84;5038169;28;20078;-55
2022/12/31 05:35:13;;;;;;;53.20;4.65;;;;;;;13.44;100.00;97829.53;5034739;28;20087;-55
2022/12/31 05:37:38;;;;;;;39.72;3.97;;;;;;;13.51;100.00;97835.53;5035798;28;20036;-55
2022/12/31 05:40:05;;;;;;;38.65;3.67;;;;;;;13.96;100.00;97833.81;5035033;28;20410;-56
2022/12/31 05:42:30;;;;;;;32.60;3.28;;;;;;;13.75;100.00;97830.72;5034012;28;20045;-58
2022/12/31 05:44:56;;;;;;;33.42;3.42;;;;;;;13.70;100.00;97829.97;5034010;28;20044;-58
2022/12/31 05:47:22;;;;;;;48.60;4.55;;;;;;;13.68;100.00;97832.59;5034188;28;20554;-54
2022/12/31 05:49:47;;;;;;;57.72;5.32;;;;;;;13.77;100.00;97834.19;5034809;28;20417;-57
2022/12/31 05:52:13;;;;;;;44.55;4.20;;;;;;;13.72;100.00;97836.88;5033047;28;20061;-54
2022/12/31 05:54:38;;;;;;;35.78;3.60;;;;;;;13.71;100.00;97839.50;5035514;28;20476;-54
2022/12/31 05:57:04;;;;;;;32.20;3.47;;;;;;;13.93;100.00;97845.22;5037371;28;20043;-55
2022/12/31 05:59:29;;;;;;;34.53;3.72;;;;;;;13.63;100.00;97847.50;5035176;28;20025;-56
2022/12/31 06:01:55;;;;;;;30.63;3.20;;;;;;;13.80;100.00;97837.59;5034542;28;20055;-55
2022/12/31 06:04:20;;;;;;;40.33;4.10;;;;;;;13.81;100.00;97848.94;5031313;28;20047;-55
2022/12/31 06:06:46;;;;;;;35.60;3.50;;;;;;;13.52;100.00;97840.69;5034437;28;20048;-54
2022/12/31 06:09:11;;;;;;;37.45;3.75;;;;;;;13.75;100.00;97839.44;5033676;28;20088;-55
2022/12/31 06:11:36;;;;;;;49.28;4.35;;;;;;;13.65;100.00;97841.34;5032037;28;20037;-55
2022/12/31 06:14:02;;;;;;;28.58;2.88;;;;;;;13.71;100.00;97840.38;5033089;28;20057;-54
2022/12/31 06:16:27;;;;;;;42.03;4.05;;;;;;;13.82;100.00;97842.81;5034005;28;20106;-56
2022/12/31 06:18:53;;;;;;;37.55;3.55;;;;;;;13.88;100.00;97858.34;5033996;28;20079;-55
2022/12/31 06:21:20;;;;;;;55.03;4.75;;;;;;;13.87;100.00;97855.78;5033861;28;20106;-55
2022/12/31 06:23:46;;;;;;;47.15;4.70;;;;;;;13.99;100.00;97865.16;5032461;28;20037;-54
2022/12/31 06:26:11;;;;;;;36.25;3.65;;;;;;;14.22;100.00;97863.84;5032265;28;20903;-54
2022/12/31 06:28:36;;;;;;;38.58;3.55;;;;;;;14.08;100.00;97866.72;5037546;28;20818;-55
2022/12/31 06:31:04;;;;;;;47.15;4.38;;;;;;;13.91;100.00;97874.00;5032449;28;20044;-56
2022/12/31 06:33:30;;;;;;;35.00;3.58;;;;;;;13.86;100.00;97867.13;5037416;28;20040;-56
2022/12/31 06:35:57;;;;;;;51.78;4.53;;;;;;;13.92;100.00;97875.72;5031853;28;20037;-55
2022/12/31 06:38:27;;;;;;;44.13;4.57;;;;;;;13.81;100.00;97877.69;5034051;28;20025;-55
2022/12/31 06:40:52;;;;;;;41.45;4.28;;;;;;;14.09;100.00;97881.50;5032314;28;20049;-57
2022/12/31 06:43:18;;;;;;;35.03;3.65;;;;;;;13.87;100.00;97867.09;5034082;28;20073;-56
2022/12/31 06:45:43;;;;;;;40.05;3.90;;;;;;;13.95;100.00;97876.56;5034540;28;20033;-55
2022/12/31 06:48:09;;;;;;;40.50;3.95;;;;;;;13.98;100.00;97873.88;5032714;28;20442;-56
2022/12/31 06:50:34;;;;;;;32.88;3.55;;;;;;;14.03;100.00;97878.13;5033793;28;20037;-56
2022/12/31 06:52:59;;;;;;;46.20;4.32;;;;;;;13.92;100.00;97877.47;5035268;28;20029;-55
2022/12/31 06:55:25;;;;;;;33.50;3.20;;;;;;;14.03;100.00;97874.66;5032426;28;20140;-55
2022/12/31 06:57:51;;;;;;;34.65;3.42;;;;;;;14.06;100.00;97878.06;5034918;28;20028;-56
2022/12/31 07:00:17;;;;;;;42.88;3.97;;;;;;;14.05;100.00;97886.81;5031395;28;20021;-55
2022/12/31 07:03:07;;;;;;;38.20;3.65;;;;;;;14.13;100.00;97893.63;5032638;28;20519;-56
2022/12/31 07:06:00;;;;;;;28.30;3.05;;;;;;;14.24;100.00;97881.22;5034393;28;20116;-55
2022/12/31 07:08:49;;;;;;;36.90;3.53;;;;;;;14.16;100.00;97876.16;5031611;28;20035;-54
2022/12/31 07:11:22;;;;;;;63.83;5.47;;;;;;;14.11;100.00;97875.34;5032235;28;20159;-55
2022/12/31 07:13:56;;;;;;;37.88;3.50;;;;;;;14.02;100.00;97870.31;5034348;28;20078;-54
2022/12/31 07:16:44;;;;;;;45.72;4.35;;;;;;;14.16;100.00;97873.53;5032825;28;20089;-54
2022/12/31 07:19:24;;;;;;;33.30;3.63;;;;;;;14.19;100.00;97870.81;5032492;28;20037;-56
2022/12/31 07:21:52;;;;;;;39.78;3.92;;;;;;;14.25;100.00;97877.69;5029085;28;20414;-55
2022/12/31 07:24:18;;;;;;;48.40;4.65;;;;;;;14.02;100.00;97886.88;5033595;28;20568;-54
2022/12/31 07:27:26;;;;;;;38.38;4.00;;;;;;;13.97;100.00;97877.38;5031485;28;20079;-54
2022/12/31 07:30:03;;;;;;;48.08;4.63;;;;;;;13.99;100.00;97881.69;5034293;28;20346;-54
2022/12/31 07:32:43;;;;;;;48.38;4.35;;;;;;;14.10;100.00;97894.56;5034146;28;20714;-54
2022/12/31 07:35:38;;;;;;;41.80;3.90;;;;;;;14.02;100.00;97884.25;5033116;28;20037;-55
2022/12/31 07:38:31;;;;;;;33.03;3.03;;;;;;;14.09;100.00;97890.22;5035879;28;20349;-54
2022/12/31 07:40:59;;;;;;;31.00;3.28;;;;;;;14.09;100.00;97889.34;5033181;28;20044;-54
2022/12/31 07:43:30;;;;;;;41.05;3.92;;;;;;;14.30;100.00;97902.00;5031716;28;20021;-57
2022/12/31 07:46:16;;;;;;;40.15;3.40;;;;;;;14.16;100.00;97894.44;5033823;28;20043;-57
2022/12/31 07:48:42;;;;;;;46.05;4.25;;;;;;;14.19;100.00;97891.75;5032284;28;20028;-54
2022/12/31 07:51:11;;;;;;;41.45;4.05;;;;;;;14.36;100.00;97885.31;5032394;28;20052;-56
2022/12/31 07:53:37;;;;;;;50.53;4.40;;;;;;;14.06;100.00;97898.13;5034529;28;20410;-54
2022/12/31 07:56:05;;;;;;;34.28;3.60;;;;;;;14.43;100.00;97905.25;5032134;28;20499;-55
2022/12/31 07:58:39;;;;;;;36.20;3.58;;;;;;;14.53;100.00;97900.69;5032993;28;20040;-54
2022/12/31 08:01:10;;;;;;;39.22;3.80;;;;;;;14.62;100.00;97904.84;5030223;28;20384;-55
2022/12/31 08:04:06;;;;;;;42.58;4.03;;;;;;;14.69;100.00;97903.84;5033843;28;20474;-54
2022/12/31 08:06:59;;;;;;;32.63;3.35;;;;;;;14.69;100.00;97902.97;5032508;28;20045;-54
2022/12/31 08:09:49;;;;;;;27.70;2.90;;;;;;;14.66;100.00;97906.50;5032895;28;20044;-56
2022/12/31 08:12:17;;;;;;;36.22;4.13;;;;;;;14.86;100.00;97910.50;5032082;28;20041;-55
2022/12/31 08:14:45;;;;;;;38.60;3.85;;;;;;;15.01;100.00;97911.91;5032279;28;20692;-55
2022/12/31 08:17:15;;;;;;;27.17;3.10;;;;;;;15.26;100.00;97919.22;5033725;28;20978;-54
2022/12/31 08:19:41;;;;;;;64.05;5.68;;;;;;;15.17;100.00;97916.78;5032823;28;20037;-55
2022/12/31 08:22:41;;;;;;;51.22;4.75;;;;;;;15.56;100.00;97918.50;5031130;28;20040;-54
2022/12/31 08:25:23;;;;;;;45.85;4.20;;;;;;;15.19;100.00;97928.94;5031102;28;20047;-56
2022/12/31 08:28:16;;;;;;;35.13;3.72;;;;;;;15.56;100.00;97932.47;5031983;28;20574;-55
2022/12/31 08:30:51;;;;;;;24.35;2.70;;;;;;;15.78;100.00;97938.94;5031511;28;20055;-56
2022/12/31 08:33:30;;;;;;;49.28;4.88;;;;;;;15.82;100.00;97949.31;5032783;28;20080;-55
2022/12/31 08:36:04;;;;;;;36.22;3.90;;;;;;;15.86;100.00;97945.69;5034603;28;20044;-54
2022/12/31 08:38:33;;;;;;;33.72;3.58;;;;;;;16.44;100.00;97946.00;5037630;28;20056;-55
2022/12/31 08:41:07;;;;;;;31.70;3.33;;;;;;;16.79;100.00;97944.13;5035445;28;20044;-56
2022/12/31 08:43:54;;;;;;;32.30;3.53;;;;;;;16.62;100.00;97947.22;5036216;28;20025;-58
2022/12/31 08:46:33;;;;;;;48.10;5.00;;;;;;;17.35;100.00;97937.19;5033810;28;20376;-57
2022/12/31 08:48:58;;;;;;;28.70;3.25;;;;;;;17.42;100.00;97945.75;5034925;28;20028;-56
2022/12/31 08:51:25;;;;;;;47.05;4.68;;;;;;;17.63;100.00;97948.59;5035219;28;20047;-57
2022/12/31 08:53:52;;;;;;;43.15;4.43;;;;;;;17.60;100.00;97954.81;5037692;28;20052;-56
2022/12/31 08:56:35;;;;;;;44.58;4.47;;;;;;;17.25;100.00;97952.41;5037162;28;20536;-55
2022/12/31 08:59:27;;;;;;;30.15;3.53;;;;;;;17.56;100.00;97956.66;5036045;28;20029;-56
2022/12/31 09:01:59;;;;;;;;;;;;;;;17.35;100.00;97970.50;5034759;28;20037;-58
2022/12/31 09:04:53;;;;;;;48.80;5.05;;;;;;;17.64;100.00;97956.44;5035190;28;20003;-56
2022/12/31 09:07:26;;;;;;;42.40;4.07;;;;;;;17.65;100.00;97957.28;5036187;28;20034;-58
2022/12/31 09:10:24;;;;;;;55.75;5.10;;;;;;;17.53;100.00;97964.69;5035938;28;20041;-57
2022/12/31 09:12:58;;;;;;;35.47;3.85;;;;;;;17.59;100.00;97965.38;5034009;28;20132;-57
2022/12/31 09:15:41;;;;;;;35.55;3.75;;;;;;;17.70;100.00;97979.03;5034334;28;20121;-55
2022/12/31 09:18:07;;;;;;;;;;;;;;;17.45;100.00;97971.94;5035406;28;20040;-56
2022/12/31 09:20:33;;;;;;;31.45;3.28;;;;;;;17.78;100.00;97979.63;5033460;28;20520;-55
2022/12/31 09:23:02;;;;;;;33.80;3.97;;;;;;;18.03;100.00;97984.09;5034835;28;20123;-55
2022/12/31 09:25:28;;;;;;;40.35;4.57;;;;;;;17.46;100.00;97986.81;5036034;28;20037;-55
2022/12/31 09:28:42;;;;;;;51.65;7.43;;;;;;;17.37;100.00;97980.06;5038341;28;20029;-56
2022/12/31 09:31:16;;;;;;;55.97;6.43;;;;;;;17.96;100.00;97979.94;5030248;28;20798;-57
2022/12/31 09:33:44;;;;;;;33.97;4.28;;;;;;;17.92;100.00;97994.97;5033546;28;20389;-56
2022/12/31 09:36:18;;;;;;;46.13;5.57;;;;;;;17.67;100.00;97989.66;5020837;28;20043;-56
2022/12/31 09:38:51;;;;;;;64.13;6.20;;;;;;;17.61;100.00;97984.59;5028774;28;20047;-58
2022/12/31 09:41:51;;;;;;;63.17;6.07;;;;;;;17.75;100.00;97998.16;5027586;28;20048;-57
2022/12/31 09:44:35;;;;;;;50.90;5.32;;;;;;;17.66;100.00;97995.81;5030919;28;20044;-57
2022/12/31 09:47:40;;;;;;;73.00;6.68;;;;;;;17.40;100.00;98000.13;5029689;28;20060;-57
2022/12/31 09:50:27;;;;;;;58.78;5.63;;;;;;;17.07;100.00;98006.38;5028774;28;20099;-57
2022/12/31 09:53:12;;;;;;;61.30;5.93;;;;;;;17.33;100.00;98009.97;5030055;28;20344;-56
2022/12/31 09:56:02;;;;;;;66.00;5.97;;;;;;;17.21;100.00;98000.72;5029579;28;20041;-57
2022/12/31 09:58:59;;;;;;;58.63;5.60;;;;;;;17.14;100.00;98010.53;5031301;28;20028;-57
2022/12/31 10:01:52;;;;;;;65.28;6.03;;;;;;;17.24;100.00;98016.38;5026532;28;20045;-59
2022/12/31 10:04:35;;;;;;;72.82;6.70;;;;;;;17.38;100.00;98015.09;5028440;28;20118;-57
2022/12/31 10:07:30;;;;;;;35.90;3.97;;;;;;;17.26;100.00;98016.34;5027666;28;20380;-57
2022/12/31 10:10:04;;;;;;;46.70;4.38;;;;;;;17.77;100.00;98008.63;5014395;28;20040;-56
2022/12/31 10:12:42;;;;;;;59.58;6.05;;;;;;;17.89;100.00;98013.47;5050329;28;20471;-57
2022/12/31 10:15:26;;;;;;;54.95;5.15;;;;;;;17.93;100.00;98001.09;5029856;28;20021;-57
2022/12/31 10:18:30;;;;;;;65.95;6.10;;;;;;;18.31;100.00;98006.88;5032368;28;20080;-56
2022/12/31 10:21:20;;;;;;;50.05;5.00;;;;;;;18.57;100.00;97994.56;5027605;28;20095;-55
2022/12/31 10:23:48;;;;;;;58.50;5.63;;;;;;;18.60;100.00;97993.59;5029987;28;20029;-56
2022/12/31 10:26:32;;;;;;;45.10;4.68;;;;;;;18.84;99.57;97990.97;5029454;28;20067;-55
2022/12/31 10:29:22;;;;;;;59.25;5.72;;;;;;;19.30;98.41;97993.63;5028579;28;20037;-59
2022/12/31 10:32:17;;;;;;;48.95;4.80;;;;;;;19.32;96.38;97986.53;5025727;28;20180;-56
2022/12/31 10:35:20;;;;;;;45.63;4.68;;;;;;;19.12;97.87;97993.44;5030128;28;20045;-57
2022/12/31 10:37:58;;;;;;;45.85;4.68;;;;;;;19.15;97.39;97995.09;5031625;28;20912;-58
2022/12/31 10:40:45;;;;;;;57.67;5.80;;;;;;;19.07;95.72;97982.22;5031111;28;20368;-56
2022/12/31 10:43:48;;;;;;;44.72;4.68;;;;;;;19.09;68.45;97990.06;5029755;28;20057;-57
2022/12/31 10:46:19;;;;;;;52.50;4.63;;;;;;;19.39;65.36;97981.88;5031423;28;20029;-56
2022/12/31 10:48:53;;;;;;;43.63;4.37;;;;;;;18.79;64.73;97983.25;5031689;28;20142;-57
2022/12/31 10:51:37;;;;;;;58.83;5.88;;;;;;;18.52;65.30;97980.69;5029609;28;20543;-56
2022/12/31 10:54:24;;;;;;;36.45;3.95;;;;;;;18.91;66.18;97976.66;5031480;28;20024;-57
2022/12/31 10:57:06;;;;;;;49.15;4.97;;;;;;;19.19;65.74;97980.88;5029621;28;20037;-56
2022/12/31 10:59:37;;;;;;;36.70;4.13;;;;;;;19.74;61.04;97978.72;5034271;28;20139;-57
2022/12/31 11:02:08;;;;;;;32.22;3.53;;;;;;;19.33;61.63;97977.72;5029487;28;20087;-57
2022/12/31 11:04:43;;;;;;;35.47;4.10;;;;;;;19.72;60.75;97985.88;5029954;28;20484;-58
2022/12/31 11:07:21;;;;;;;38.47;3.92;;;;;;;18.94;61.21;97975.66;5030935;28;20037;-58
2022/12/31 11:10:31;;;;;;;64.00;6.15;;;;;;;19.82;60.37;97978.44;5031476;28;20613;-57
2022/12/31 11:13:30;;;;;;;42.20;4.28;;;;;;;19.86;58.58;97978.22;4995003;28;20570;-56
2022/12/31 11:16:08;;;;;;;47.28;4.85;;;;;;;20.57;56.90;97980.59;5008906;28;20597;-56
2022/12/31 11:18:39;;;;;;;33.53;3.70;;;;;;;20.44;56.60;97967.91;5010513;28;20041;-57
2022/12/31 11:21:38;;;;;;;38.40;4.35;;;;;;;20.29;56.62;97977.38;5015870;28;20299;-56
2022/12/31 11:24:25;;;;;;;43.53;4.72;;;;;;;20.51;57.30;97973.78;5031546;28;20031;-57
2022/12/31 11:27:16;;;;;;;41.40;4.53;;;;;;;20.55;55.83;97965.66;5019028;28;20037;-55
2022/12/31 11:30:03;;;;;;;74.82;7.00;;;;;;;20.62;56.45;97960.09;5014863;28;20683;-56
2022/12/31 11:32:40;;;;;;;48.80;4.82;;;;;;;21.13;55.24;97963.09;5027174;28;20075;-55
2022/12/31 11:35:44;;;;;;;43.83;4.90;;;;;;;20.49;54.64;97962.44;5027984;28;20127;-56
2022/12/31 11:38:21;;;;;;;55.78;5.63;;;;;;;20.92;53.23;97964.94;5030273;28;20032;-56
2022/12/31 11:40:58;;;;;;;50.25;4.97;;;;;;;21.01;55.04;97947.81;5030362;28;20418;-55
2022/12/31 11:43:27;;;;;;;56.28;5.47;;;;;;;20.62;54.89;97958.31;5018729;28;20677;-56
2022/12/31 11:46:20;;;;;;;65.55;6.38;;;;;;;20.57;55.66;97955.03;5028498;28;20665;-56
2022/12/31 11:49:04;;;;;;;52.67;5.20;;;;;;;20.91;54.55;97965.88;5030853;28;20044;-57
2022/12/31 11:51:45;;;;;;;37.22;4.38;;;;;;;20.83;54.15;97950.34;5026016;28;20045;-56
2022/12/31 11:54:31;;;;;;;60.75;6.38;;;;;;;20.78;55.28;97957.59;5027227;28;20037;-56
2022/12/31 11:57:44;;;;;;;47.63;5.10;;;;;;;20.72;54.73;97956.13;5026161;28;20033;-55